Observation data for Reese Center on 06/15/2019      Previous  Date  Next       Current Mesonet Observations  Soil Data  Daily Summary Page  Observations in Plain Language
KREE 150500Z 18019KT 25/17 A2985 RMK A01 T02530171  RH  062%=      5-min Rain = 0
KREE 150505Z 18019KT 25/17 A2985 RMK A01 T02520171  RH  062%=      5-min Rain = 0
KREE 150510Z 18018G23KT 25/17 A2986 RMK A01 T02510172  RH  063%=      5-min Rain = 0
KREE 150515Z 18019G25KT 25/17 A2986 RMK A01 T02500172  RH  063%=      5-min Rain = 0
KREE 150520Z 18019G24KT 25/17 A2986 RMK A01 T02500172  RH  064%=      5-min Rain = 0
KREE 150525Z 18017KT 25/17 A2986 RMK A01 T02490173  RH  064%=      5-min Rain = 0
KREE 150530Z 18017G22KT 25/17 A2986 RMK A01 T02480173  RH  065%=      5-min Rain = 0
KREE 150535Z 18016G21KT 25/17 A2985 RMK A01 T02460173  RH  065%=      5-min Rain = 0
KREE 150540Z 18017G22KT 25/17 A2985 RMK A01 T02450173  RH  066%=      5-min Rain = 0
KREE 150545Z 18018G23KT 24/17 A2985 RMK A01 T02440173  RH  066%=      5-min Rain = 0
KREE 150550Z 18016KT 24/17 A2985 RMK A01 T02430173  RH  067%=      5-min Rain = 0
KREE 150555Z 18015KT 24/17 A2985 RMK A01 T02410174  RH  068%=      5-min Rain = 0
KREE 150600Z 18016G21KT 24/17 A2985 RMK A01 T02400174  RH  068%=      5-min Rain = 0
KREE 150605Z 18016KT 24/17 A2985 RMK A01 T02400174  RH  068%=      5-min Rain = 0
KREE 150610Z 18015G20KT 24/17 A2985 RMK A01 T02390174  RH  069%=      5-min Rain = 0
KREE 150615Z 18016G22KT 24/18 A2985 RMK A01 T02380175  RH  069%=      5-min Rain = 0
KREE 150620Z 18016KT 24/18 A2985 RMK A01 T02370175  RH  070%=      5-min Rain = 0
KREE 150625Z 18015G20KT 24/18 A2985 RMK A01 T02360175  RH  070%=      5-min Rain = 0
KREE 150630Z 18016KT 24/18 A2985 RMK A01 T02360175  RH  071%=      5-min Rain = 0
KREE 150635Z 18016KT 24/18 A2985 RMK A01 T02350176  RH  071%=      5-min Rain = 0
KREE 150640Z 18015G21KT 23/18 A2985 RMK A01 T02340176  RH  071%=      5-min Rain = 0
KREE 150645Z 18015KT 23/18 A2985 RMK A01 T02330176  RH  072%=      5-min Rain = 0
KREE 150650Z 18015KT 23/18 A2985 RMK A01 T02320176  RH  073%=      5-min Rain = 0
KREE 150655Z 18015KT 23/18 A2985 RMK A01 T02310176  RH  073%=      5-min Rain = 0
KREE 150700Z 18015G21KT 23/18 A2985 RMK A01 T02300176  RH  073%=      5-min Rain = 0
KREE 150705Z 18016KT 23/18 A2985 RMK A01 T02290176  RH  073%=      5-min Rain = 0
KREE 150710Z 18016KT 23/18 A2985 RMK A01 T02290175  RH  073%=      5-min Rain = 0
KREE 150715Z 18016KT 23/18 A2985 RMK A01 T02280175  RH  074%=      5-min Rain = 0
KREE 150720Z 18015G21KT 23/18 A2984 RMK A01 T02270175  RH  074%=      5-min Rain = 0
KREE 150725Z 18015KT 23/17 A2984 RMK A01 T02250174  RH  075%=      5-min Rain = 0
KREE 150730Z 18014KT 23/17 A2984 RMK A01 T02250174  RH  075%=      5-min Rain = 0
KREE 150735Z 18015G20KT 22/17 A2984 RMK A01 T02230174  RH  076%=      5-min Rain = 0
KREE 150740Z 18015KT 22/17 A2984 RMK A01 T02230173  RH  076%=      5-min Rain = 0
KREE 150745Z 19015G21KT 22/17 A2984 RMK A01 T02210173  RH  076%=      5-min Rain = 0
KREE 150750Z 19015KT 22/17 A2984 RMK A01 T02210173  RH  076%=      5-min Rain = 0
KREE 150755Z 19014G19KT 22/17 A2983 RMK A01 T02190173  RH  077%=      5-min Rain = 0
KREE 150800Z 19014KT 22/17 A2983 RMK A01 T02180172  RH  077%=      5-min Rain = 0
KREE 150805Z 19014KT 22/17 A2983 RMK A01 T02170172  RH  077%=      5-min Rain = 0
KREE 150810Z 19014KT 22/17 A2983 RMK A01 T02160172  RH  078%=      5-min Rain = 0
KREE 150815Z 19014KT 22/17 A2983 RMK A01 T02150171  RH  078%=      5-min Rain = 0
KREE 150820Z 19014KT 22/17 A2983 RMK A01 T02150171  RH  078%=      5-min Rain = 0
KREE 150825Z 19015G20KT 22/17 A2983 RMK A01 T02150170  RH  077%=      5-min Rain = 0
KREE 150830Z 19015KT 22/17 A2983 RMK A01 T02150170  RH  077%=      5-min Rain = 0
KREE 150835Z 19015KT 21/17 A2983 RMK A01 T02140169  RH  077%=      5-min Rain = 0
KREE 150840Z 19015KT 21/17 A2983 RMK A01 T02130168  RH  077%=      5-min Rain = 0
KREE 150845Z 19015KT 21/17 A2983 RMK A01 T02120167  RH  077%=      5-min Rain = 0
KREE 150850Z 19015KT 21/17 A2983 RMK A01 T02110167  RH  078%=      5-min Rain = 0
KREE 150855Z 19015G20KT 21/17 A2983 RMK A01 T02110166  RH  077%=      5-min Rain = 0
KREE 150900Z 19015G21KT 21/17 A2983 RMK A01 T02110166  RH  077%=      5-min Rain = 0
KREE 150905Z 19015KT 21/17 A2983 RMK A01 T02100166  RH  077%=      5-min Rain = 0
KREE 150910Z 20014G19KT 21/17 A2983 RMK A01 T02100166  RH  078%=      5-min Rain = 0
KREE 150915Z 20014G19KT 21/17 A2983 RMK A01 T02090165  RH  078%=      5-min Rain = 0
KREE 150920Z 19014KT 21/17 A2983 RMK A01 T02080165  RH  078%=      5-min Rain = 0
KREE 150925Z 19013KT 21/17 A2983 RMK A01 T02060165  RH  079%=      5-min Rain = 0
KREE 150930Z 20014KT 21/17 A2983 RMK A01 T02060165  RH  079%=      5-min Rain = 0
KREE 150935Z 19014KT 21/17 A2983 RMK A01 T02050165  RH  079%=      5-min Rain = 0
KREE 150940Z 19014KT 20/16 A2983 RMK A01 T02040164  RH  080%=      5-min Rain = 0
KREE 150945Z 19014KT 20/16 A2983 RMK A01 T02040164  RH  080%=      5-min Rain = 0
KREE 150950Z 19013KT 20/16 A2983 RMK A01 T02030163  RH  080%=      5-min Rain = 0
KREE 150955Z 20012KT 20/16 A2983 RMK A01 T02020163  RH  080%=      5-min Rain = 0
KREE 151000Z 19013KT 20/16 A2983 RMK A01 T02010162  RH  080%=      5-min Rain = 0
KREE 151005Z 20014KT 20/16 A2983 RMK A01 T02020161  RH  079%=      5-min Rain = 0
KREE 151010Z 20013KT 20/16 A2983 RMK A01 T02010161  RH  079%=      5-min Rain = 0
KREE 151015Z 20015KT 20/16 A2983 RMK A01 T02020160  RH  079%=      5-min Rain = 0
KREE 151020Z 20014KT 20/16 A2983 RMK A01 T02020159  RH  078%=      5-min Rain = 0
KREE 151025Z 20013KT 20/16 A2983 RMK A01 T02000158  RH  079%=      5-min Rain = 0
KREE 151030Z 20013KT 20/16 A2983 RMK A01 T02000158  RH  078%=      5-min Rain = 0
KREE 151035Z 21014KT 20/16 A2983 RMK A01 T02010157  RH  078%=      5-min Rain = 0
KREE 151040Z 22013KT 20/16 A2983 RMK A01 T01990156  RH  078%=      5-min Rain = 0
KREE 151045Z 21014KT 20/16 A2983 RMK A01 T01980155  RH  078%=      5-min Rain = 0
KREE 151050Z 21013KT 20/15 A2983 RMK A01 T02000154  RH  076%=      5-min Rain = 0
KREE 151055Z 22012KT 20/15 A2983 RMK A01 T01970152  RH  077%=      5-min Rain = 0
KREE 151100Z 22013G18KT 20/15 A2983 RMK A01 T01970152  RH  077%=      5-min Rain = 0
KREE 151105Z 22013KT 20/15 A2983 RMK A01 T01970151  RH  077%=      5-min Rain = 0
KREE 151110Z 21013KT 20/15 A2983 RMK A01 T01950151  RH  077%=      5-min Rain = 0
KREE 151115Z 21012KT 19/15 A2983 RMK A01 T01940150  RH  077%=      5-min Rain = 0
KREE 151120Z 22012KT 19/15 A2983 RMK A01 T01930150  RH  078%=      5-min Rain = 0
KREE 151125Z 22012KT 19/15 A2983 RMK A01 T01920149  RH  078%=      5-min Rain = 0
KREE 151130Z 22011KT 19/15 A2983 RMK A01 T01920149  RH  078%=      5-min Rain = 0
KREE 151135Z 23012KT 19/15 A2983 RMK A01 T01910149  RH  078%=      5-min Rain = 0
KREE 151140Z 23013KT 19/15 A2983 RMK A01 T01920149  RH  078%=      5-min Rain = 0
KREE 151145Z 23012KT 19/15 A2983 RMK A01 T01910149  RH  078%=      5-min Rain = 0
KREE 151150Z 23012KT 19/15 A2983 RMK A01 T01910148  RH  078%=      5-min Rain = 0
KREE 151155Z 23012KT 19/15 A2983 RMK A01 T01900148  RH  078%=      5-min Rain = 0
KREE 151200Z 23012KT 19/15 A2983 RMK A01 T01900148  RH  078%=      5-min Rain = 0
KREE 151205Z 23012KT 19/15 A2983 RMK A01 T01900148  RH  078%=      5-min Rain = 0
KREE 151210Z 22012KT 19/15 A2983 RMK A01 T01910148  RH  078%=      5-min Rain = 0
KREE 151215Z 22012KT 19/15 A2983 RMK A01 T01920148  RH  077%=      5-min Rain = 0
KREE 151220Z 22013G18KT 19/15 A2983 RMK A01 T01940148  RH  077%=      5-min Rain = 0
KREE 151225Z 22015G20KT 20/15 A2983 RMK A01 T01960147  RH  075%=      5-min Rain = 0
KREE 151230Z 22013KT 20/15 A2983 RMK A01 T01980147  RH  074%=      5-min Rain = 0
KREE 151235Z 22012G18KT 20/15 A2984 RMK A01 T01990147  RH  073%=      5-min Rain = 0
KREE 151240Z 22014KT 20/15 A2983 RMK A01 T02010146  RH  072%=      5-min Rain = 0
KREE 151245Z 22013KT 20/15 A2984 RMK A01 T02030146  RH  071%=      5-min Rain = 0
KREE 151250Z 22014G19KT 21/15 A2984 RMK A01 T02050145  RH  070%=      5-min Rain = 0
KREE 151255Z 22014G19KT 21/15 A2983 RMK A01 T02080145  RH  069%=      5-min Rain = 0
KREE 151300Z 22015G20KT 21/15 A2984 RMK A01 T02100145  RH  068%=      5-min Rain = 0
KREE 151305Z 23013G18KT 21/15 A2984 RMK A01 T02120145  RH  067%=      5-min Rain = 0
KREE 151310Z 23013KT 21/14 A2984 RMK A01 T02140144  RH  066%=      5-min Rain = 0
KREE 151315Z 24013KT 22/14 A2984 RMK A01 T02160143  RH  064%=      5-min Rain = 0
KREE 151320Z 24013KT 22/14 A2984 RMK A01 T02180143  RH  064%=      5-min Rain = 0
KREE 151325Z 24012KT 22/14 A2984 RMK A01 T02190141  RH  063%=      5-min Rain = 0
KREE 151330Z 25011KT 22/14 A2984 RMK A01 T02220142  RH  062%=      5-min Rain = 0
KREE 151335Z 25010KT 23/14 A2985 RMK A01 T02250142  RH  061%=      5-min Rain = 0
KREE 151340Z 25011KT 23/14 A2985 RMK A01 T02280140  RH  059%=      5-min Rain = 0
KREE 151345Z 25012KT 23/14 A2985 RMK A01 T02310139  RH  057%=      5-min Rain = 0
KREE 151350Z 26012KT 23/14 A2985 RMK A01 T02330139  RH  056%=      5-min Rain = 0
KREE 151355Z 27012KT 24/13 A2985 RMK A01 T02380132  RH  053%=      5-min Rain = 0
KREE 151400Z 27011G16KT 24/13 A2985 RMK A01 T02410134  RH  052%=      5-min Rain = 0
KREE 151405Z 29012KT 25/13 A2985 RMK A01 T02460127  RH  048%=      5-min Rain = 0
KREE 151410Z 30015KT 25/11 A2985 RMK A01 T02490114  RH  043%=      5-min Rain = 0
KREE 151415Z 31015KT 25/12 A2986 RMK A01 T02480115  RH  044%=      5-min Rain = 0
KREE 151420Z 31015KT 24/11 A2986 RMK A01 T02440113  RH  044%=      5-min Rain = 0
KREE 151425Z 31014KT 24/11 A2986 RMK A01 T02400112  RH  045%=      5-min Rain = 0
KREE 151430Z 32013KT 24/11 A2986 RMK A01 T02390109  RH  045%=      5-min Rain = 0
KREE 151435Z 32011KT 24/11 A2986 RMK A01 T02410106  RH  043%=      5-min Rain = 0
KREE 151440Z 33013KT 24/10 A2986 RMK A01 T02410097  RH  041%=      5-min Rain = 0
KREE 151445Z 31014KT 24/10 A2986 RMK A01 T02420096  RH  040%=      5-min Rain = 0
KREE 151450Z 33012KT 25/10 A2986 RMK A01 T02450100  RH  041%=      5-min Rain = 0
KREE 151455Z 33013KT 25/10 A2986 RMK A01 T02470100  RH  040%=      5-min Rain = 0
KREE 151500Z 33015KT 25/09 A2985 RMK A01 T02480093  RH  038%=      5-min Rain = 0
KREE 151505Z 34014KT 25/10 A2985 RMK A01 T02510099  RH  039%=      5-min Rain = 0
KREE 151510Z 33013KT 25/10 A2986 RMK A01 T02510097  RH  038%=      5-min Rain = 0
KREE 151515Z 32012KT 25/10 A2987 RMK A01 T02540101  RH  039%=      5-min Rain = 0
KREE 151520Z 32012KT 26/10 A2987 RMK A01 T02550104  RH  039%=      5-min Rain = 0
KREE 151525Z 33010KT 26/11 A2987 RMK A01 T02570106  RH  039%=      5-min Rain = 0
KREE 151530Z 30010KT 26/11 A2987 RMK A01 T02610107  RH  039%=      5-min Rain = 0
KREE 151535Z 30010G15KT 26/11 A2987 RMK A01 T02620105  RH  038%=      5-min Rain = 0
KREE 151540Z 30011KT 26/11 A2987 RMK A01 T02640108  RH  038%=      5-min Rain = 0
KREE 151545Z 31009KT 27/11 A2987 RMK A01 T02660110  RH  038%=      5-min Rain = 0
KREE 151550Z 30011KT 27/11 A2987 RMK A01 T02670113  RH  039%=      5-min Rain = 0
KREE 151555Z 30009KT 27/12 A2986 RMK A01 T02710117  RH  039%=      5-min Rain = 0
KREE 151600Z 30009KT 27/11 A2986 RMK A01 T02720114  RH  038%=      5-min Rain = 0
KREE 151605Z 30009KT 28/11 A2986 RMK A01 T02750114  RH  037%=      5-min Rain = 0
KREE 151610Z 31008KT 28/12 A2986 RMK A01 T02780117  RH  037%=      5-min Rain = 0
KREE 151615Z 30010KT 28/12 A2986 RMK A01 T02830117  RH  036%=      5-min Rain = 0
KREE 151620Z 31008KT 28/12 A2986 RMK A01 T02840118  RH  036%=      5-min Rain = 0
KREE 151625Z 32011KT 29/11 A2986 RMK A01 T02880114  RH  035%=      5-min Rain = 0
KREE 151630Z 31011KT 29/11 A2987 RMK A01 T02910112  RH  033%=      5-min Rain = 0
KREE 151635Z 31013G18KT 29/11 A2987 RMK A01 T02940109  RH  032%=      5-min Rain = 0
KREE 151640Z 31011G17KT 30/12 A2987 RMK A01 T02960115  RH  033%=      5-min Rain = 0
KREE 151645Z 30013KT 30/11 A2987 RMK A01 T02980113  RH  033%=      5-min Rain = 0
KREE 151650Z 31011KT 30/12 A2987 RMK A01 T03000116  RH  033%=      5-min Rain = 0
KREE 151655Z 32011KT 30/12 A2987 RMK A01 T02990115  RH  033%=      5-min Rain = 0
KREE 151700Z 32012KT 30/12 A2987 RMK A01 T03000117  RH  033%=      5-min Rain = 0
KREE 151705Z 32011KT 30/12 A2987 RMK A01 T03030117  RH  032%=      5-min Rain = 0
KREE 151710Z 33012KT 31/11 A2987 RMK A01 T03060113  RH  031%=      5-min Rain = 0
KREE 151715Z 33012KT 31/12 A2987 RMK A01 T03080119  RH  032%=      5-min Rain = 0
KREE 151720Z 33011G16KT 31/12 A2987 RMK A01 T03070119  RH  032%=      5-min Rain = 0
KREE 151725Z 34012KT 31/12 A2987 RMK A01 T03060123  RH  033%=      5-min Rain = 0
KREE 151730Z 34011KT 31/12 A2987 RMK A01 T03070120  RH  032%=      5-min Rain = 0
KREE 151735Z 34009KT 31/13 A2987 RMK A01 T03080126  RH  033%=      5-min Rain = 0
KREE 151740Z 31009KT 31/13 A2987 RMK A01 T03120127  RH  033%=      5-min Rain = 0
KREE 151745Z 33007KT 31/12 A2987 RMK A01 T03140124  RH  032%=      5-min Rain = 0
KREE 151750Z 33011KT 31/13 A2986 RMK A01 T03140127  RH  033%=      5-min Rain = 0
KREE 151755Z 33009G14KT 31/13 A2986 RMK A01 T03140127  RH  032%=      5-min Rain = 0
KREE 151800Z 35010KT 32/13 A2986 RMK A01 T03190127  RH  032%=      5-min Rain = 0
KREE 151805Z 34010KT 32/12 A2986 RMK A01 T03200118  RH  030%=      5-min Rain = 0
KREE 151810Z 33008KT 32/12 A2986 RMK A01 T03210122  RH  030%=      5-min Rain = 0
KREE 151815Z 33008KT 32/13 A2986 RMK A01 T03240128  RH  031%=      5-min Rain = 0
KREE 151820Z 32009KT 32/12 A2986 RMK A01 T03230121  RH  030%=      5-min Rain = 0
KREE 151825Z 36008G13KT 33/12 A2986 RMK A01 T03270120  RH  029%=      5-min Rain = 0
KREE 151830Z 00007G13KT 33/12 A2986 RMK A01 T03260117  RH  028%=      5-min Rain = 0
KREE 151835Z 00008KT 33/12 A2986 RMK A01 T03280124  RH  030%=      5-min Rain = 0
KREE 151840Z 01009KT 33/12 A2986 RMK A01 T03320124  RH  029%=      5-min Rain = 0
KREE 151845Z 01007KT 33/12 A2985 RMK A01 T03340117  RH  027%=      5-min Rain = 0
KREE 151850Z 34010KT 34/11 A2985 RMK A01 T03350107  RH  025%=      5-min Rain = 0
KREE 151855Z 32008KT 33/11 A2985 RMK A01 T03320106  RH  026%=      5-min Rain = 0
KREE 151900Z 00008KT 33/11 A2985 RMK A01 T03340110  RH  026%=      5-min Rain = 0
KREE 151905Z 35007G14KT 34/10 A2985 RMK A01 T03370102  RH  024%=      5-min Rain = 0
KREE 151910Z 34008G13KT 34/10 A2985 RMK A01 T03360104  RH  025%=      5-min Rain = 0
KREE 151915Z 34006KT 34/10 A2985 RMK A01 T03360102  RH  024%=      5-min Rain = 0
KREE 151920Z 35007KT 34/11 A2985 RMK A01 T03390109  RH  025%=      5-min Rain = 0
KREE 151925Z 34006KT 34/10 A2985 RMK A01 T03380104  RH  024%=      5-min Rain = 0
KREE 151930Z 31004KT 34/11 A2985 RMK A01 T03400105  RH  024%=      5-min Rain = 0
KREE 151935Z 02009KT 34/11 A2985 RMK A01 T03430109  RH  025%=      5-min Rain = 0
KREE 151940Z 00003KT 34/10 A2985 RMK A01 T03400098  RH  023%=      5-min Rain = 0
KREE 151945Z 00005KT 35/11 A2985 RMK A01 T03460105  RH  024%=      5-min Rain = 0
KREE 151950Z 33007KT 34/10 A2985 RMK A01 T03440101  RH  023%=      5-min Rain = 0
KREE 151955Z 30006G12KT 34/09 A2985 RMK A01 T03410090  RH  022%=      5-min Rain = 0
KREE 152000Z 35002KT 34/08 A2985 RMK A01 T03390082  RH  021%=      5-min Rain = 0
KREE 152005Z 34005KT 34/09 A2985 RMK A01 T03350087  RH  022%=      5-min Rain = 0
KREE 152010Z 01002KT 34/09 A2985 RMK A01 T03420085  RH  021%=      5-min Rain = 0
KREE 152015Z 04002KT 34/09 A2984 RMK A01 T03410090  RH  022%=      5-min Rain = 0
KREE 152020Z 02002KT 34/10 A2984 RMK A01 T03440096  RH  022%=      5-min Rain = 0
KREE 152025Z 33004G12KT 35/10 A2984 RMK A01 T03490104  RH  023%=      5-min Rain = 0
KREE 152030Z 31006G12KT 35/08 A2984 RMK A01 T03480079  RH  020%=      5-min Rain = 0
KREE 152035Z 29004KT 35/08 A2984 RMK A01 T03490082  RH  020%=      5-min Rain = 0
KREE 152040Z 31003KT 35/08 A2983 RMK A01 T03500076  RH  019%=      5-min Rain = 0
KREE 152045Z 29003KT 35/08 A2983 RMK A01 T03520080  RH  019%=      5-min Rain = 0
KREE 152050Z 26002KT 35/07 A2983 RMK A01 T03520066  RH  017%=      5-min Rain = 0
KREE 152055Z 25003KT 35/07 A2983 RMK A01 T03450073  RH  019%=      5-min Rain = 0
KREE 152100Z 21007KT 34/09 A2982 RMK A01 T03430087  RH  021%=      5-min Rain = 0
KREE 152105Z 22005KT 35/08 A2982 RMK A01 T03460084  RH  020%=      5-min Rain = 0
KREE 152110Z 33003KT 35/09 A2982 RMK A01 T03520086  RH  020%=      5-min Rain = 0
KREE 152115Z 01002KT 35/08 A2982 RMK A01 T03460081  RH  020%=      5-min Rain = 0
KREE 152120Z 34002KT 35/09 A2982 RMK A01 T03450089  RH  021%=      5-min Rain = 0
KREE 152125Z 31005KT 34/08 A2982 RMK A01 T03390076  RH  020%=      5-min Rain = 0
KREE 152130Z 33004KT 34/07 A2981 RMK A01 T03360074  RH  020%=      5-min Rain = 0
KREE 152135Z 28002KT 34/07 A2981 RMK A01 T03380074  RH  020%=      5-min Rain = 0
KREE 152140Z 18003KT 34/08 A2981 RMK A01 T03400080  RH  021%=      5-min Rain = 0
KREE 152145Z 20004KT 34/08 A298 RMK A01 T03400082  RH  021%=      5-min Rain = 0
KREE 152150Z 19004KT 34/08 A298 RMK A01 T03390084  RH  021%=      5-min Rain = 0
KREE 152155Z 21006KT 34/08 A298 RMK A01 T03440083  RH  020%=      5-min Rain = 0
KREE 152200Z 25005KT 34/07 A2979 RMK A01 T03420066  RH  018%=      5-min Rain = 0
KREE 152205Z 25007KT 34/07 A2979 RMK A01 T03440070  RH  019%=      5-min Rain = 0
KREE 152210Z 23008KT 34/08 A2978 RMK A01 T03430078  RH  020%=      5-min Rain = 0
KREE 152215Z 20007KT 35/08 A2978 RMK A01 T03450075  RH  019%=      5-min Rain = 0
KREE 152220Z 22007KT 35/08 A2978 RMK A01 T03510080  RH  019%=      5-min Rain = 0
KREE 152225Z 24005KT 35/08 A2978 RMK A01 T03540079  RH  019%=      5-min Rain = 0
KREE 152230Z 24005G10KT 36/08 A2978 RMK A01 T03550076  RH  018%=      5-min Rain = 0
KREE 152235Z 28005KT 36/08 A2978 RMK A01 T03560079  RH  019%=      5-min Rain = 0
KREE 152240Z 28005KT 35/07 A2978 RMK A01 T03520065  RH  017%=      5-min Rain = 0
KREE 152245Z 27004KT 35/06 A2978 RMK A01 T03470060  RH  017%=      5-min Rain = 0
KREE 152250Z 24007KT 34/06 A2978 RMK A01 T03410060  RH  018%=      5-min Rain = 0
KREE 152255Z 25008G13KT 34/05 A2978 RMK A01 T03380047  RH  016%=      5-min Rain = 0
KREE 152300Z 26008KT 34/04 A2978 RMK A01 T03370037  RH  015%=      5-min Rain = 0
KREE 152305Z 30010G16KT 34/04 A2979 RMK A01 T03350044  RH  017%=      5-min Rain = 0
KREE 152310Z 01015G22KT 30/13 A298 RMK A01 T03000125  RH  035%=      5-min Rain = 0
KREE 152315Z 01019G30KT 29/14 A2979 RMK A01 T02860135  RH  040%=      5-min Rain = 0
KREE 152320Z 01022G31KT 28/14 A2979 RMK A01 T02830139  RH  042%=      5-min Rain = 0
KREE 152325Z 02021G26KT 28/13 A298 RMK A01 T02810133  RH  041%=      5-min Rain = 0
KREE 152330Z 02019G27KT 28/13 A2979 RMK A01 T02810131  RH  041%=      5-min Rain = 0
KREE 152335Z 02021G28KT 28/13 A2979 RMK A01 T02810125  RH  039%=      5-min Rain = 0
KREE 152340Z 02022G27KT 28/13 A2979 RMK A01 T02820130  RH  040%=      5-min Rain = 0
KREE 152345Z 03019G24KT 28/14 A2978 RMK A01 T02780136  RH  043%=      5-min Rain = 0
KREE 152350Z 03017G22KT 28/14 A2978 RMK A01 T02790136  RH  042%=      5-min Rain = 0
KREE 152355Z 03018KT 28/14 A2978 RMK A01 T02780144  RH  045%=      5-min Rain = 0
KREE 160000Z 04019G24KT 28/15 A2978 RMK A01 T02760151  RH  048%=      5-min Rain = 0
KREE 160005Z 04018KT 28/16 A2979 RMK A01 T02760157  RH  049%=      5-min Rain = 0
KREE 160010Z 04016G22KT 28/16 A298 RMK A01 T02800162  RH  050%=      5-min Rain = 0
KREE 160015Z 04021G28KT 28/17 A298 RMK A01 T02810167  RH  051%=      5-min Rain = 0
KREE 160020Z 04020G25KT 28/17 A2981 RMK A01 T02800171  RH  053%=      5-min Rain = 0
KREE 160025Z 04021KT 28/17 A2981 RMK A01 T02800169  RH  052%=      5-min Rain = 0
KREE 160030Z 04022G32KT 28/17 A2982 RMK A01 T02800169  RH  052%=      5-min Rain = 0
KREE 160035Z 05027G33KT 27/16 A2982 RMK A01 T02690159  RH  052%=      5-min Rain = 0
KREE 160040Z 05022G29KT 26/14 A2982 RMK A01 T02590143  RH  050%=      5-min Rain = 0
KREE 160045Z 05022G29KT 26/13 A2982 RMK A01 T02620131  RH  045%=      5-min Rain = 0
KREE 160050Z 05022KT 26/12 A2983 RMK A01 T02600115  RH  041%=      5-min Rain = 0
KREE 160055Z 05019KT 26/11 A2983 RMK A01 T02610109  RH  039%=      5-min Rain = 0
KREE 160100Z 05019G25KT 26/11 A2983 RMK A01 T02630105  RH  038%=      5-min Rain = 0
KREE 160105Z 05018KT 26/10 A2984 RMK A01 T02610100  RH  037%=      5-min Rain = 0
KREE 160110Z 05016G22KT 26/09 A2983 RMK A01 T02600093  RH  035%=      5-min Rain = 0
KREE 160115Z 05015KT 26/09 A2983 RMK A01 T02590090  RH  035%=      5-min Rain = 0
KREE 160120Z 05014KT 26/09 A2983 RMK A01 T02590091  RH  035%=      5-min Rain = 0
KREE 160125Z 05017G23KT 26/09 A2983 RMK A01 T02580091  RH  035%=      5-min Rain = 0
KREE 160130Z 05017KT 26/09 A2983 RMK A01 T02560091  RH  036%=      5-min Rain = 0
KREE 160135Z 04015KT 25/09 A2983 RMK A01 T02530094  RH  037%=      5-min Rain = 0
KREE 160140Z 04013KT 25/09 A2983 RMK A01 T02520094  RH  037%=      5-min Rain = 0
KREE 160145Z 03012KT 25/10 A2983 RMK A01 T02500096  RH  038%=      5-min Rain = 0
KREE 160150Z 04010KT 25/10 A2983 RMK A01 T02490099  RH  039%=      5-min Rain = 0
KREE 160155Z 03013KT 25/10 A2982 RMK A01 T02470100  RH  040%=      5-min Rain = 0
KREE 160200Z 03012KT 24/10 A2982 RMK A01 T02440101  RH  041%=      5-min Rain = 0
KREE 160205Z 05013G18KT 24/10 A2982 RMK A01 T02430096  RH  040%=      5-min Rain = 0
KREE 160210Z 06011KT 24/10 A2983 RMK A01 T02410096  RH  041%=      5-min Rain = 0
KREE 160215Z 04012G19KT 24/09 A2983 RMK A01 T02400094  RH  040%=      5-min Rain = 0
KREE 160220Z 04015G20KT 24/09 A2983 RMK A01 T02390093  RH  040%=      5-min Rain = 0
KREE 160225Z 05015KT 23/10 A2982 RMK A01 T02340095  RH  042%=      5-min Rain = 0
KREE 160230Z 06014G19KT 23/10 A2982 RMK A01 T02320096  RH  043%=      5-min Rain = 0
KREE 160235Z 06012KT 23/10 A2983 RMK A01 T02290097  RH  044%=      5-min Rain = 0
KREE 160240Z 07011KT 22/10 A2983 RMK A01 T02240099  RH  046%=      5-min Rain = 0
KREE 160245Z 06012KT 22/10 A2983 RMK A01 T02230099  RH  046%=      5-min Rain = 0
KREE 160250Z 05011KT 22/10 A2984 RMK A01 T02210101  RH  047%=      5-min Rain = 0
KREE 160255Z 04009KT 22/10 A2984 RMK A01 T02190102  RH  048%=      5-min Rain = 0
KREE 160300Z 04009KT 22/10 A2984 RMK A01 T02160104  RH  049%=      5-min Rain = 0
KREE 160305Z 04008G13KT 21/11 A2983 RMK A01 T02140105  RH  051%=      5-min Rain = 0
KREE 160310Z 07008KT 21/11 A2984 RMK A01 T02100106  RH  052%=      5-min Rain = 0
KREE 160315Z 07008KT 21/11 A2984 RMK A01 T02080105  RH  053%=      5-min Rain = 0
KREE 160320Z 07009KT 21/10 A2984 RMK A01 T02080103  RH  052%=      5-min Rain = 0
KREE 160325Z 07008KT 21/10 A2984 RMK A01 T02070102  RH  052%=      5-min Rain = 0
KREE 160330Z 07008KT 21/10 A2985 RMK A01 T02060102  RH  052%=      5-min Rain = 0
KREE 160335Z 07009KT 21/10 A2985 RMK A01 T02070103  RH  052%=      5-min Rain = 0
KREE 160340Z 07008KT 21/10 A2985 RMK A01 T02060104  RH  053%=      5-min Rain = 0
KREE 160345Z 07009KT 21/10 A2986 RMK A01 T02050104  RH  053%=      5-min Rain = 0
KREE 160350Z 07009KT 21/10 A2986 RMK A01 T02050104  RH  053%=      5-min Rain = 0
KREE 160355Z 08009KT 20/10 A2986 RMK A01 T02040104  RH  054%=      5-min Rain = 0
KREE 160400Z 09010KT 20/10 A2986 RMK A01 T02030102  RH  053%=      5-min Rain = 0
KREE 160405Z 09011KT 21/10 A2986 RMK A01 T02050100  RH  052%=      5-min Rain = 0
KREE 160410Z 09011KT 21/10 A2986 RMK A01 T02080099  RH  050%=      5-min Rain = 0
KREE 160415Z 09011KT 21/10 A2986 RMK A01 T02060098  RH  051%=      5-min Rain = 0
KREE 160420Z 09010KT 21/10 A2986 RMK A01 T02050097  RH  051%=      5-min Rain = 0
KREE 160425Z 09010KT 21/10 A2987 RMK A01 T02050096  RH  050%=      5-min Rain = 0
KREE 160430Z 09011KT 21/10 A2987 RMK A01 T02050096  RH  050%=      5-min Rain = 0
KREE 160435Z 09011KT 21/09 A2987 RMK A01 T02070094  RH  049%=      5-min Rain = 0
KREE 160440Z 10011KT 21/09 A2987 RMK A01 T02070094  RH  049%=      5-min Rain = 0
KREE 160445Z 09014KT 21/09 A2988 RMK A01 T02090093  RH  048%=      5-min Rain = 0
KREE 160450Z 09009KT 21/09 A2988 RMK A01 T02080093  RH  049%=      5-min Rain = 0
KREE 160455Z 08011KT 21/09 A2988 RMK A01 T02070093  RH  048%=      5-min Rain = 0

Page generated in 0.0092 seconds.